createdAt,value
2023-03-26T00:01:40.417Z,7.39
2023-03-26T00:04:08.595Z,7.30
2023-03-26T00:06:39.546Z,7.25
2023-03-26T00:09:10.228Z,7.45
2023-03-26T00:11:38.802Z,7.42
2023-03-26T00:14:06.730Z,7.45
2023-03-26T00:16:34.628Z,7.52
2023-03-26T00:19:02.718Z,7.63
2023-03-26T00:21:31.459Z,7.49
2023-03-26T00:24:06.205Z,7.46
2023-03-26T00:26:37.811Z,7.61
2023-03-26T00:29:06.966Z,7.56
2023-03-26T00:31:37.951Z,7.66
2023-03-26T00:34:05.976Z,7.60
2023-03-26T00:36:36.003Z,7.85
2023-03-26T00:39:05.635Z,7.77
2023-03-26T00:41:37.154Z,8.15
2023-03-26T00:44:05.535Z,8.24
2023-03-26T00:46:33.434Z,8.23
2023-03-26T00:49:03.848Z,8.50
2023-03-26T00:51:33.992Z,8.59
2023-03-26T00:54:02.301Z,8.68
2023-03-26T00:56:31.076Z,8.66
2023-03-26T00:59:00.341Z,8.77
2023-03-26T01:01:30.770Z,8.93
2023-03-26T01:04:39.052Z,8.93
2023-03-26T01:07:13.620Z,8.95
2023-03-26T01:09:45.831Z,8.96
2023-03-26T01:12:18.399Z,8.94
2023-03-26T01:14:49.607Z,8.89
2023-03-26T01:17:18.905Z,9.00
2023-03-26T01:20:15.095Z,8.95
2023-03-26T01:22:47.977Z,8.94
2023-03-26T01:25:16.028Z,8.88
2023-03-26T01:27:50.765Z,8.95
2023-03-26T01:30:33.881Z,9.07
2023-03-26T01:33:30.092Z,9.04
2023-03-26T01:36:21.309Z,9.04
2023-03-26T01:38:52.060Z,9.06
2023-03-26T01:41:32.725Z,9.08
2023-03-26T01:44:07.189Z,9.12
2023-03-26T01:46:36.412Z,9.06
2023-03-26T01:49:06.457Z,9.02
2023-03-26T01:51:35.575Z,9.01
2023-03-26T01:54:08.042Z,9.01
2023-03-26T01:56:35.835Z,8.97
2023-03-26T01:59:34.164Z,9.08
2023-03-26T02:02:15.373Z,9.05
2023-03-26T02:05:01.526Z,9.00
2023-03-26T02:07:41.645Z,8.95
2023-03-26T02:10:24.626Z,9.08
2023-03-26T02:12:53.443Z,9.16
2023-03-26T02:15:22.068Z,9.20
2023-03-26T02:17:52.437Z,9.13
2023-03-26T02:20:21.662Z,9.11
2023-03-26T02:22:49.668Z,9.04
2023-03-26T02:25:21.550Z,8.96
2023-03-26T02:27:52.908Z,8.97
2023-03-26T02:30:26.360Z,8.97
2023-03-26T02:32:59.324Z,8.91
2023-03-26T02:35:33.443Z,9.01
2023-03-26T02:38:03.369Z,9.03
2023-03-26T02:40:31.233Z,9.03
2023-03-26T02:43:00.766Z,9.06
2023-03-26T02:45:30.730Z,9.03
2023-03-26T02:48:08.052Z,9.08
2023-03-26T02:50:46.114Z,9.02
2023-03-26T02:53:34.263Z,9.04
2023-03-26T02:56:22.410Z,9.10
2023-03-26T02:59:08.952Z,9.13
2023-03-26T03:01:42.833Z,9.08
2023-03-26T03:04:12.920Z,9.27
2023-03-26T03:06:41.617Z,9.19
2023-03-26T03:09:09.441Z,9.28
2023-03-26T03:11:39.098Z,9.37
2023-03-26T03:14:07.558Z,9.28
2023-03-26T03:16:36.217Z,9.32
2023-03-26T03:19:07.533Z,9.34
2023-03-26T03:21:40.853Z,9.36
2023-03-26T03:24:09.863Z,9.35
2023-03-26T03:26:45.679Z,9.37
2023-03-26T03:29:29.617Z,9.39
2023-03-26T03:32:00.932Z,9.37
2023-03-26T03:34:39.744Z,9.34
2023-03-26T03:37:08.157Z,9.26
2023-03-26T03:39:44.436Z,9.31
2023-03-26T03:42:14.872Z,9.35
2023-03-26T03:44:43.045Z,9.23
2023-03-26T03:47:23.800Z,9.23
2023-03-26T03:49:51.870Z,9.28
2023-03-26T03:52:19.743Z,9.26
2023-03-26T03:54:48.028Z,9.31
2023-03-26T03:57:23.595Z,9.28
2023-03-26T04:00:01.782Z,9.23
2023-03-26T04:02:43.399Z,9.26
2023-03-26T04:05:12.618Z,9.24
2023-03-26T04:07:46.184Z,9.27
2023-03-26T04:10:29.407Z,9.23
2023-03-26T04:13:13.808Z,9.16
2023-03-26T04:16:11.417Z,9.15
2023-03-26T04:18:40.650Z,9.16
2023-03-26T04:21:15.950Z,9.19
2023-03-26T04:23:45.662Z,9.06
2023-03-26T04:26:30.978Z,8.95
2023-03-26T04:29:18.282Z,8.88
2023-03-26T04:31:50.348Z,8.83
2023-03-26T04:34:24.494Z,8.80
2023-03-26T04:37:05.863Z,8.62
2023-03-26T04:39:41.306Z,8.67
2023-03-26T04:42:41.821Z,8.60
2023-03-26T04:45:22.888Z,8.56
2023-03-26T04:47:58.535Z,8.53
2023-03-26T04:50:27.106Z,8.49
2023-03-26T04:52:57.945Z,8.32
2023-03-26T04:55:57.774Z,8.25
2023-03-26T04:58:48.429Z,8.07
2023-03-26T05:01:17.649Z,8.27
2023-03-26T05:03:46.814Z,8.43
2023-03-26T05:06:17.909Z,8.48
2023-03-26T05:08:46.362Z,8.49
2023-03-26T05:11:24.876Z,8.47
2023-03-26T05:13:53.268Z,8.44
2023-03-26T05:16:22.470Z,8.38
2023-03-26T05:18:57.097Z,8.40
2023-03-26T05:21:28.650Z,8.30
2023-03-26T05:23:56.499Z,8.31
2023-03-26T05:26:24.643Z,8.31
2023-03-26T05:28:52.850Z,8.27
2023-03-26T05:31:34.816Z,8.15
2023-03-26T05:34:04.111Z,8.19
2023-03-26T05:36:32.575Z,8.09
2023-03-26T05:39:25.707Z,8.00
2023-03-26T05:41:56.491Z,8.04
2023-03-26T05:44:31.481Z,8.17
2023-03-26T05:47:03.906Z,8.28
2023-03-26T05:49:31.909Z,8.28
2023-03-26T05:51:59.795Z,8.27
2023-03-26T05:54:59.907Z,8.36
2023-03-26T05:57:59.962Z,8.41
2023-03-26T06:00:48.931Z,8.43
2023-03-26T06:03:27.505Z,8.49
2023-03-26T06:06:15.678Z,8.52
2023-03-26T06:09:01.474Z,8.51
2023-03-26T06:11:32.055Z,8.67
2023-03-26T06:14:01.177Z,8.69
2023-03-26T06:16:29.063Z,8.69
2023-03-26T06:19:19.640Z,8.71
2023-03-26T06:22:00.576Z,8.70
2023-03-26T06:24:36.688Z,8.70
2023-03-26T06:27:24.820Z,8.79
2023-03-26T06:30:11.852Z,8.79
2023-03-26T06:32:48.902Z,8.74
2023-03-26T06:35:22.845Z,8.83
2023-03-26T06:37:50.781Z,8.76
2023-03-26T06:40:18.859Z,8.80
2023-03-26T06:43:13.286Z,8.87
2023-03-26T06:45:58.618Z,9.00
2023-03-26T06:48:40.396Z,9.03
2023-03-26T06:51:26.726Z,9.09
2023-03-26T06:54:23.929Z,9.19
2023-03-26T06:56:58.353Z,9.24
2023-03-26T06:59:46.479Z,9.16
2023-03-26T07:02:32.841Z,9.12
2023-03-26T07:05:19.633Z,9.20
2023-03-26T07:08:05.983Z,9.22
2023-03-26T07:10:55.985Z,9.23
2023-03-26T07:13:40.092Z,9.20
2023-03-26T07:16:34.531Z,9.24
2023-03-26T07:19:15.281Z,9.31
2023-03-26T07:21:43.798Z,9.36
2023-03-26T07:24:25.823Z,9.49
2023-03-26T07:27:43.277Z,9.69
2023-03-26T07:30:36.572Z,9.76
2023-03-26T07:33:29.657Z,9.75
2023-03-26T07:36:43.592Z,9.86
2023-03-26T07:39:50.749Z,9.99
2023-03-26T07:42:52.545Z,10.06
2023-03-26T07:45:45.315Z,10.11
2023-03-26T07:48:48.629Z,10.22
2023-03-26T07:51:36.894Z,10.18
2023-03-26T07:54:16.783Z,10.29
2023-03-26T07:57:30.745Z,10.37
2023-03-26T08:00:42.866Z,10.47
2023-03-26T08:03:19.204Z,10.54
2023-03-26T08:06:02.420Z,10.64
2023-03-26T08:08:50.376Z,10.82
2023-03-26T08:12:17.904Z,10.73
2023-03-26T08:14:49.205Z,10.83
2023-03-26T08:17:32.455Z,10.90
2023-03-26T08:20:20.409Z,10.86
2023-03-26T08:23:02.385Z,10.83
2023-03-26T08:25:38.079Z,10.91
2023-03-26T08:28:37.866Z,11.03
2023-03-26T08:31:07.676Z,11.12
2023-03-26T08:33:38.376Z,11.23
2023-03-26T08:36:08.134Z,11.29
2023-03-26T08:38:36.208Z,11.25
2023-03-26T08:41:17.074Z,11.37
2023-03-26T08:44:04.766Z,11.39
2023-03-26T08:46:46.437Z,11.42
2023-03-26T08:49:20.464Z,11.37
2023-03-26T08:52:17.174Z,11.57
2023-03-26T08:55:41.138Z,11.55
2023-03-26T08:58:11.611Z,11.75
2023-03-26T09:01:06.970Z,11.68
2023-03-26T09:04:05.963Z,11.70
2023-03-26T09:06:42.726Z,11.65
2023-03-26T09:09:22.671Z,11.86
2023-03-26T09:12:09.446Z,12.11
2023-03-26T09:14:45.290Z,12.10
2023-03-26T09:17:19.064Z,12.04
2023-03-26T09:20:26.567Z,12.07
2023-03-26T09:23:00.449Z,12.19
2023-03-26T09:25:48.957Z,12.00
2023-03-26T09:28:46.055Z,12.09
2023-03-26T09:31:16.960Z,12.41
2023-03-26T09:33:57.240Z,12.23
2023-03-26T09:36:48.230Z,12.21
2023-03-26T09:39:39.337Z,12.22
2023-03-26T09:42:17.614Z,12.26
2023-03-26T09:45:12.463Z,12.51
2023-03-26T09:48:09.101Z,12.55
2023-03-26T09:51:17.888Z,12.57
2023-03-26T09:53:57.569Z,12.43
2023-03-26T09:56:49.889Z,12.45
2023-03-26T09:59:44.567Z,12.71
2023-03-26T10:02:46.314Z,12.63
2023-03-26T10:05:31.309Z,12.44
2023-03-26T10:08:21.887Z,12.53
2023-03-26T10:11:19.574Z,12.59
2023-03-26T10:13:54.997Z,12.46
2023-03-26T10:16:42.361Z,12.36
2023-03-26T10:19:28.830Z,12.43
2023-03-26T10:22:09.764Z,12.43
2023-03-26T10:24:47.689Z,12.46
2023-03-26T10:27:30.931Z,12.41
2023-03-26T10:30:25.868Z,12.57
2023-03-26T10:33:13.884Z,12.58
2023-03-26T10:35:44.504Z,12.57
2023-03-26T10:38:27.781Z,12.55
2023-03-26T10:41:00.680Z,12.65
2023-03-26T10:44:07.816Z,12.50
2023-03-26T10:46:51.899Z,12.62
2023-03-26T10:49:28.732Z,12.57
2023-03-26T10:52:04.908Z,12.46
2023-03-26T10:54:51.865Z,12.54
2023-03-26T10:57:28.467Z,12.53
2023-03-26T11:00:01.699Z,12.59
2023-03-26T11:02:31.716Z,12.54
2023-03-26T11:04:59.582Z,12.71
2023-03-26T11:08:02.417Z,12.87
2023-03-26T11:10:44.572Z,12.74
2023-03-26T11:13:41.969Z,12.64
2023-03-26T11:16:19.208Z,12.67
2023-03-26T11:19:23.234Z,12.67
2023-03-26T11:22:09.864Z,12.81
2023-03-26T11:25:21.038Z,12.85
2023-03-26T11:28:21.164Z,12.89
2023-03-26T11:31:03.338Z,12.99
2023-03-26T11:33:36.946Z,13.07
2023-03-26T11:36:11.322Z,12.86
2023-03-26T11:38:44.986Z,12.82
2023-03-26T11:41:22.901Z,12.81
2023-03-26T11:44:31.527Z,12.88
2023-03-26T11:47:05.711Z,12.72
2023-03-26T11:49:33.696Z,12.70
2023-03-26T11:52:02.888Z,12.53
2023-03-26T11:54:30.736Z,12.47
2023-03-26T11:57:11.194Z,12.40
2023-03-26T12:00:19.454Z,12.44
2023-03-26T12:02:48.589Z,12.47
2023-03-26T12:05:16.683Z,12.51
2023-03-26T12:07:47.100Z,12.55
2023-03-26T12:10:38.248Z,12.42
2023-03-26T12:13:23.774Z,12.57
2023-03-26T12:15:51.790Z,12.57
2023-03-26T12:18:28.228Z,12.65
2023-03-26T12:21:14.866Z,12.63
2023-03-26T12:23:58.087Z,12.68
2023-03-26T12:26:36.259Z,12.72
2023-03-26T12:29:11.075Z,12.75
2023-03-26T12:32:04.943Z,12.76
2023-03-26T12:34:37.873Z,12.63
2023-03-26T12:37:07.956Z,12.61
2023-03-26T12:40:09.321Z,12.54
2023-03-26T12:44:50.058Z,12.54
2023-03-26T12:45:24.652Z,12.46
2023-03-26T12:47:58.042Z,12.43
2023-03-26T12:51:09.547Z,12.42
2023-03-26T12:53:53.185Z,12.50
2023-03-26T12:56:38.538Z,12.46
2023-03-26T12:59:09.429Z,12.55
2023-03-26T13:02:02.216Z,12.50
2023-03-26T13:05:09.102Z,12.43
2023-03-26T13:08:01.671Z,12.47
2023-03-26T13:10:51.768Z,12.53
2023-03-26T13:13:56.517Z,12.61
2023-03-26T13:16:29.882Z,12.70
2023-03-26T13:19:16.065Z,12.72
2023-03-26T13:21:43.929Z,12.71
2023-03-26T13:24:22.466Z,12.80
2023-03-26T13:26:55.972Z,12.73
2023-03-26T13:29:23.933Z,12.72
2023-03-26T13:32:07.152Z,12.78
2023-03-26T13:35:12.850Z,12.67
2023-03-26T13:38:16.385Z,12.63
2023-03-26T13:41:02.310Z,12.50
2023-03-26T13:43:57.909Z,12.32
2023-03-26T13:46:49.205Z,12.24
2023-03-26T13:49:29.507Z,12.20
2023-03-26T13:52:14.346Z,12.07
2023-03-26T13:54:49.371Z,12.06
2023-03-26T13:57:28.864Z,12.02
2023-03-26T14:00:02.580Z,12.03
2023-03-26T14:02:43.630Z,11.85
2023-03-26T14:05:33.221Z,11.87
2023-03-26T14:08:06.630Z,11.76
2023-03-26T14:10:43.310Z,11.53
2023-03-26T14:13:22.646Z,11.57
2023-03-26T14:15:57.349Z,11.59
2023-03-26T14:19:04.796Z,11.50
2023-03-26T14:22:08.267Z,11.38
2023-03-26T14:24:48.876Z,11.60
2023-03-26T14:27:37.997Z,11.64
2023-03-26T14:30:17.941Z,11.97
2023-03-26T14:33:04.244Z,12.25
2023-03-26T14:36:11.418Z,12.38
2023-03-26T14:39:30.014Z,12.41
2023-03-26T14:42:20.524Z,12.06
2023-03-26T14:44:49.121Z,12.14
2023-03-26T14:47:23.472Z,12.00
2023-03-26T14:50:15.776Z,11.98
2023-03-26T14:52:52.464Z,12.05
2023-03-26T14:55:54.201Z,12.00
2023-03-26T14:58:44.544Z,11.91
2023-03-26T15:01:21.587Z,11.79
2023-03-26T15:04:07.873Z,11.99
2023-03-26T15:07:08.715Z,11.99
2023-03-26T15:09:40.359Z,11.95
2023-03-26T15:12:15.012Z,11.95
2023-03-26T15:15:19.942Z,11.93
2023-03-26T15:18:24.883Z,11.86
2023-03-26T15:20:55.632Z,11.97
2023-03-26T15:23:37.201Z,12.08
2023-03-26T15:26:27.568Z,12.13
2023-03-26T15:29:04.358Z,12.10
2023-03-26T15:31:57.840Z,11.99
2023-03-26T15:34:49.997Z,11.99
2023-03-26T15:37:42.658Z,11.86
2023-03-26T15:40:19.593Z,11.83
2023-03-26T15:43:10.952Z,11.71
2023-03-26T15:45:38.774Z,11.73
2023-03-26T15:48:25.907Z,11.73
2023-03-26T15:51:47.699Z,11.65
2023-03-26T15:54:29.673Z,11.59
2023-03-26T15:57:17.758Z,11.59
2023-03-26T16:00:15.293Z,11.58
2023-03-26T16:02:53.715Z,11.52
2023-03-26T16:05:39.693Z,11.54
2023-03-26T16:08:38.728Z,11.50
2023-03-26T16:11:10.714Z,11.50
2023-03-26T16:13:44.823Z,11.48
2023-03-26T16:16:16.147Z,11.45
2023-03-26T16:18:48.404Z,11.44
2023-03-26T16:21:31.299Z,11.36
2023-03-26T16:24:03.120Z,11.38
2023-03-26T16:26:56.326Z,11.38
2023-03-26T16:29:28.120Z,11.35
2023-03-26T16:32:15.745Z,11.38
2023-03-26T16:35:02.947Z,11.31
2023-03-26T16:37:36.906Z,11.30
2023-03-26T16:40:17.149Z,11.27
2023-03-26T16:42:57.875Z,11.25
2023-03-26T16:45:39.008Z,11.30
2023-03-26T16:48:22.748Z,11.32
2023-03-26T16:51:06.105Z,11.29
2023-03-26T16:53:43.626Z,11.29
2023-03-26T16:56:21.933Z,11.26
2023-03-26T16:59:06.785Z,11.23
2023-03-26T17:01:37.169Z,11.25
2023-03-26T17:04:25.186Z,11.11
2023-03-26T17:07:14.398Z,11.18
2023-03-26T17:10:10.303Z,11.18
2023-03-26T17:12:53.041Z,11.16
2023-03-26T17:15:30.599Z,11.11
2023-03-26T17:18:13.887Z,11.10
2023-03-26T17:21:10.029Z,11.07
2023-03-26T17:23:52.278Z,11.05
2023-03-26T17:27:01.951Z,11.05
2023-03-26T17:29:50.208Z,10.93
2023-03-26T17:32:21.657Z,10.93
2023-03-26T17:35:02.357Z,10.90
2023-03-26T17:37:46.011Z,10.97
2023-03-26T17:40:44.907Z,10.88
2023-03-26T17:43:42.455Z,10.86
2023-03-26T17:46:19.235Z,10.93
2023-03-26T17:48:55.404Z,10.82
2023-03-26T17:51:54.785Z,10.86
2023-03-26T17:54:36.771Z,10.88
2023-03-26T17:57:24.901Z,10.83
2023-03-26T18:00:01.643Z,10.86
2023-03-26T18:02:45.029Z,10.79
2023-03-26T18:05:16.094Z,10.74
2023-03-26T18:08:11.971Z,10.75
2023-03-26T18:11:12.365Z,10.81
2023-03-26T18:13:56.246Z,10.63
2023-03-26T18:16:30.071Z,10.75
2023-03-26T18:19:00.947Z,10.79
2023-03-26T18:21:38.157Z,10.68
2023-03-26T18:24:09.182Z,10.60
2023-03-26T18:26:45.710Z,10.70
2023-03-26T18:29:16.521Z,10.67
2023-03-26T18:31:46.396Z,10.64
2023-03-26T18:34:19.035Z,10.61
2023-03-26T18:36:54.249Z,10.58
2023-03-26T18:39:22.155Z,10.56
2023-03-26T18:41:50.005Z,10.60
2023-03-26T18:44:19.226Z,10.59
2023-03-26T18:46:47.051Z,10.62
2023-03-26T18:49:16.872Z,10.57
2023-03-26T18:51:56.056Z,10.60
2023-03-26T18:54:32.308Z,10.63
2023-03-26T18:57:15.931Z,10.48
2023-03-26T18:59:45.452Z,10.49
2023-03-26T19:02:14.843Z,10.51
2023-03-26T19:04:46.718Z,10.53
2023-03-26T19:07:22.503Z,10.44
2023-03-26T19:09:54.822Z,10.53
2023-03-26T19:12:25.530Z,10.56
2023-03-26T19:15:09.567Z,10.47
2023-03-26T19:17:44.834Z,10.49
2023-03-26T19:20:19.977Z,10.39
2023-03-26T19:22:49.387Z,10.45
2023-03-26T19:25:22.881Z,10.47
2023-03-26T19:27:51.891Z,10.43
2023-03-26T19:30:39.595Z,10.36
2023-03-26T19:33:19.280Z,10.38
2023-03-26T19:35:54.664Z,10.35
2023-03-26T19:38:25.607Z,10.38
2023-03-26T19:40:58.064Z,10.38
2023-03-26T19:43:27.128Z,10.43
2023-03-26T19:45:59.922Z,10.28
2023-03-26T19:48:45.596Z,10.31
2023-03-26T19:51:20.183Z,10.36
2023-03-26T19:53:53.115Z,10.28
2023-03-26T19:56:22.058Z,10.30
2023-03-26T19:58:50.830Z,10.26
2023-03-26T20:01:20.194Z,10.25
2023-03-26T20:03:51.632Z,10.18
2023-03-26T20:06:28.126Z,10.22
2023-03-26T20:09:06.216Z,10.17
2023-03-26T20:11:39.288Z,10.07
2023-03-26T20:14:16.743Z,10.08
2023-03-26T20:16:45.644Z,10.08
2023-03-26T20:19:15.192Z,10.06
2023-03-26T20:21:44.403Z,10.13
2023-03-26T20:24:17.414Z,10.12
2023-03-26T20:26:46.180Z,10.06
2023-03-26T20:29:14.853Z,10.08
2023-03-26T20:31:43.494Z,10.00
2023-03-26T20:34:21.846Z,9.88
2023-03-26T20:37:01.032Z,10.03
2023-03-26T20:39:29.366Z,9.88
2023-03-26T20:41:57.300Z,9.85
2023-03-26T20:44:26.889Z,9.98
2023-03-26T20:46:56.510Z,9.85
2023-03-26T20:49:25.012Z,9.95
2023-03-26T20:51:53.147Z,10.06
2023-03-26T20:54:25.801Z,10.05
2023-03-26T20:56:54.729Z,10.01
2023-03-26T20:59:26.700Z,9.95
2023-03-26T21:01:57.495Z,9.97
2023-03-26T21:04:26.859Z,10.01
2023-03-26T21:07:00.247Z,9.97
2023-03-26T21:09:34.329Z,9.92
2023-03-26T21:12:07.693Z,10.01
2023-03-26T21:14:41.753Z,10.01
2023-03-26T21:17:16.577Z,10.01
2023-03-26T21:19:45.336Z,10.04
2023-03-26T21:22:38.247Z,10.17
2023-03-26T21:25:21.372Z,10.05
2023-03-26T21:28:28.935Z,10.10
2023-03-26T21:31:05.686Z,10.10
2023-03-26T21:33:34.439Z,10.02
2023-03-26T21:36:04.540Z,9.91
2023-03-26T21:38:33.337Z,9.96
2023-03-26T21:41:03.245Z,9.95
2023-03-26T21:43:31.906Z,9.99
2023-03-26T21:46:00.096Z,9.91
2023-03-26T21:48:29.307Z,9.83
2023-03-26T21:51:02.538Z,9.89
2023-03-26T21:53:30.565Z,9.85
2023-03-26T21:56:29.850Z,9.94
2023-03-26T21:59:05.149Z,9.80
2023-03-26T22:02:11.300Z,9.77
2023-03-26T22:04:55.116Z,9.89
2023-03-26T22:07:51.529Z,9.79
2023-03-26T22:10:19.794Z,9.74
2023-03-26T22:12:47.635Z,9.66
2023-03-26T22:15:15.749Z,9.53
2023-03-26T22:17:44.216Z,9.56
2023-03-26T22:20:15.450Z,9.64
2023-03-26T22:22:48.837Z,9.60
2023-03-26T22:25:17.934Z,9.54
2023-03-26T22:27:47.330Z,9.57
2023-03-26T22:30:16.428Z,9.46
2023-03-26T22:32:44.766Z,9.37
2023-03-26T22:35:13.098Z,9.35
2023-03-26T22:37:41.624Z,9.38
2023-03-26T22:40:10.488Z,9.44
2023-03-26T22:42:38.500Z,9.34
2023-03-26T22:45:07.165Z,9.39
2023-03-26T22:47:35.471Z,9.22
2023-03-26T22:50:04.989Z,9.17
2023-03-26T22:52:34.283Z,9.22
2023-03-26T22:55:02.933Z,9.20
2023-03-26T22:57:31.118Z,9.17
2023-03-26T23:00:09.682Z,9.15
2023-03-26T23:02:37.853Z,9.14
2023-03-26T23:05:06.110Z,9.07
2023-03-26T23:07:34.082Z,8.96
2023-03-26T23:10:02.113Z,8.85
2023-03-26T23:12:29.980Z,8.79
2023-03-26T23:14:58.320Z,8.74
2023-03-26T23:17:27.071Z,8.86
2023-03-26T23:19:55.537Z,8.63
2023-03-26T23:22:23.441Z,8.65
2023-03-26T23:24:51.550Z,8.66
2023-03-26T23:27:22.742Z,8.64
2023-03-26T23:29:50.642Z,8.65
2023-03-26T23:32:24.124Z,8.55
2023-03-26T23:34:52.947Z,8.45
2023-03-26T23:37:23.493Z,8.26
2023-03-26T23:39:53.278Z,8.20
2023-03-26T23:42:28.631Z,8.15
2023-03-26T23:44:57.771Z,8.19
2023-03-26T23:47:25.665Z,8.09
2023-03-26T23:49:53.501Z,8.02
2023-03-26T23:52:21.681Z,8.00
2023-03-26T23:54:49.516Z,7.79
2023-03-26T23:57:18.473Z,7.91
2023-03-26T23:59:46.557Z,7.63
